Time;durP1;ratioP1;P1;durP2;ratioP2;P2;SDS_P1;SDS_P2;PMS_P1;PMS_P2;Temp;Humidity;BMP_temperature;BMP_pressure;BME280_temperature;BME280_humidity;BME280_pressure;Samples;Min_cycle;Max_cycle;Signal;HPM_P1;HPM_P2
2021/04/08 00:02:19;;;;;;;5.40;4.00;;;;;;;;;;5046197;28;20180;-42
2021/04/08 00:04:44;;;;;;;6.07;4.30;;;;;;;;;;5049806;28;20172;-43
2021/04/08 00:07:09;;;;;;;4.10;3.70;;;;;;;;;;5047280;28;20187;-42
2021/04/08 00:09:34;;;;;;;4.07;3.77;;;;;;;;;;5048655;28;20207;-43
2021/04/08 00:11:59;;;;;;;5.00;4.30;;;;;;;;;;5050436;28;20259;-42
2021/04/08 00:14:25;;;;;;;5.00;3.40;;;;;;;;;;5042166;28;20219;-43
2021/04/08 00:16:51;;;;;;;3.60;3.30;;;;;;;;;;5041580;28;20178;-42
2021/04/08 00:19:16;;;;;;;4.80;3.30;;;;;;;;;;5039758;28;20176;-42
2021/04/08 00:21:41;;;;;;;2.87;2.73;;;;;;;;;;5046716;28;20168;-42
2021/04/08 00:24:06;;;;;;;3.03;2.80;;;;;;;;;;5043900;28;20215;-41
2021/04/08 00:26:32;;;;;;;3.20;2.90;;;;;;;;;;5045675;28;20213;-42
2021/04/08 00:28:57;;;;;;;4.20;3.87;;;;;;;;;;5040747;28;20730;-42
2021/04/08 00:31:22;;;;;;;5.07;4.50;;;;;;;;;;5049778;28;20180;-43
2021/04/08 00:33:47;;;;;;;5.60;3.80;;;;;;;;;;5049765;28;20675;-46
2021/04/08 00:36:12;;;;;;;6.45;4.10;;;;;;;;;;5046427;28;20686;-42
2021/04/08 00:38:38;;;;;;;6.40;5.47;;;;;;;;;;5050385;28;20235;-42
2021/04/08 00:41:03;;;;;;;8.90;6.20;;;;;;;;;;5049675;28;20208;-43
2021/04/08 00:43:28;;;;;;;5.20;4.80;;;;;;;;;;5043280;28;20215;-43
2021/04/08 00:45:53;;;;;;;6.20;5.60;;;;;;;;;;5049369;28;20168;-42
2021/04/08 00:48:19;;;;;;;7.27;5.73;;;;;;;;;;5041318;28;20252;-43
2021/04/08 00:50:44;;;;;;;6.50;5.70;;;;;;;;;;5043746;28;20208;-42
2021/04/08 00:53:13;;;;;;;7.40;5.80;;;;;;;;;;5045183;28;20183;-43
2021/04/08 00:55:41;;;;;;;7.17;6.43;;;;;;;;;;5047336;28;20211;-42
2021/04/08 00:58:07;;;;;;;8.20;5.80;;;;;;;;;;5048124;28;20628;-42
2021/04/08 01:00:33;;;;;;;9.87;6.00;;;;;;;;;;5049345;28;21141;-43
2021/04/08 01:02:58;;;;;;;7.37;6.37;;;;;;;;;;5044690;28;20191;-42
2021/04/08 01:05:23;;;;;;;7.73;6.00;;;;;;;;;;5045039;28;20182;-43
2021/04/08 01:07:49;;;;;;;6.87;6.27;;;;;;;;;;5047966;28;20723;-43
2021/04/08 01:10:14;;;;;;;8.27;7.20;;;;;;;;;;5032355;28;20911;-43
2021/04/08 01:12:39;;;;;;;7.57;6.70;;;;;;;;;;5048643;28;20180;-43
2021/04/08 01:15:05;;;;;;;10.80;7.53;;;;;;;;;;5047552;28;20171;-43
2021/04/08 01:17:34;;;;;;;7.93;6.90;;;;;;;;;;5048585;28;20182;-42
2021/04/08 01:20:14;;;;;;;8.73;7.27;;;;;;;;;;5045923;28;20974;-42
2021/04/08 01:22:58;;;;;;;8.83;7.10;;;;;;;;;;5047736;28;20599;-42
2021/04/08 01:25:38;;;;;;;7.80;7.00;;;;;;;;;;5048713;28;20628;-43
2021/04/08 01:28:13;;;;;;;7.33;6.67;;;;;;;;;;5040969;28;20643;-43
2021/04/08 01:33:43;;;;;;;8.00;7.03;;;;;;;;;;5032620;28;20593;-42
2021/04/08 01:36:09;;;;;;;7.60;6.70;;;;;;;;;;5045810;28;20603;-42
2021/04/08 01:38:41;;;;;;;8.47;6.47;;;;;;;;;;5033015;28;21075;-43
2021/04/08 01:41:07;;;;;;;7.33;6.20;;;;;;;;;;5041722;28;20629;-42
2021/04/08 01:43:34;;;;;;;7.03;6.33;;;;;;;;;;5048242;28;20603;-42
2021/04/08 01:46:01;;;;;;;5.90;5.47;;;;;;;;;;5032821;28;20633;-42
2021/04/08 01:48:27;;;;;;;6.20;5.60;;;;;;;;;;5047486;28;20598;-42
2021/04/08 01:50:57;;;;;;;5.37;4.97;;;;;;;;;;5041928;28;20747;-43
2021/04/08 01:53:22;;;;;;;6.07;4.67;;;;;;;;;;5036552;28;20642;-43
2021/04/08 01:55:49;;;;;;;6.10;5.13;;;;;;;;;;5046068;28;20668;-43
2021/04/08 01:58:14;;;;;;;6.80;4.80;;;;;;;;;;5037162;28;20176;-42
2021/04/08 02:00:40;;;;;;;5.43;5.00;;;;;;;;;;5038287;28;22056;-42
2021/04/08 02:03:05;;;;;;;5.40;4.90;;;;;;;;;;5043426;28;20262;-42
2021/04/08 02:05:31;;;;;;;5.87;5.37;;;;;;;;;;5047302;28;20193;-42
2021/04/08 02:07:57;;;;;;;6.27;5.60;;;;;;;;;;5046543;28;20173;-42
2021/04/08 02:10:23;;;;;;;7.37;5.57;;;;;;;;;;5038395;28;20208;-43
2021/04/08 02:12:50;;;;;;;7.13;6.10;;;;;;;;;;5048541;28;21296;-43
2021/04/08 02:15:18;;;;;;;7.70;5.93;;;;;;;;;;5047287;28;20617;-44
2021/04/08 02:17:45;;;;;;;7.60;6.13;;;;;;;;;;5047110;28;20611;-44
2021/04/08 02:20:17;;;;;;;7.77;5.50;;;;;;;;;;5043605;28;21001;-44
2021/04/08 02:22:51;;;;;;;6.93;4.97;;;;;;;;;;5042232;28;21051;-44
2021/04/08 02:25:16;;;;;;;6.63;5.07;;;;;;;;;;5045660;28;20615;-44
2021/04/08 02:27:42;;;;;;;5.27;4.53;;;;;;;;;;5042646;28;21227;-43
2021/04/08 02:30:08;;;;;;;11.27;4.73;;;;;;;;;;5039683;28;20209;-44
2021/04/08 02:32:35;;;;;;;6.40;4.53;;;;;;;;;;5044003;28;20582;-42
2021/04/08 02:35:01;;;;;;;6.73;4.80;;;;;;;;;;5047585;28;20959;-41
2021/04/08 02:37:26;;;;;;;6.00;5.20;;;;;;;;;;5045232;28;20596;-42
2021/04/08 02:39:51;;;;;;;11.57;5.43;;;;;;;;;;5042722;28;20186;-42
2021/04/08 02:42:16;;;;;;;7.00;5.43;;;;;;;;;;5038919;28;20549;-42
2021/04/08 02:44:41;;;;;;;7.13;5.00;;;;;;;;;;5040643;28;20187;-42
2021/04/08 02:47:06;;;;;;;8.80;5.87;;;;;;;;;;5047716;28;20674;-42
2021/04/08 02:49:32;;;;;;;9.07;6.37;;;;;;;;;;5036698;28;20200;-44
2021/04/08 02:52:02;;;;;;;7.60;6.33;;;;;;;;;;5042908;28;20176;-42
2021/04/08 02:54:32;;;;;;;5.93;5.40;;;;;;;;;;5044148;28;20310;-42
2021/04/08 02:56:58;;;;;;;7.07;5.07;;;;;;;;;;5043065;28;20602;-42
2021/04/08 02:59:25;;;;;;;7.47;4.90;;;;;;;;;;5045691;28;21150;-42
2021/04/08 03:02:02;;;;;;;9.20;5.10;;;;;;;;;;5046704;28;20597;-43
2021/04/08 03:04:29;;;;;;;5.33;4.70;;;;;;;;;;5033671;28;20599;-42
2021/04/08 03:06:54;;;;;;;5.93;4.47;;;;;;;;;;5031098;28;21306;-44
2021/04/08 03:09:25;;;;;;;6.13;4.60;;;;;;;;;;5043502;28;20702;-42
2021/04/08 03:11:52;;;;;;;6.70;4.63;;;;;;;;;;5046330;28;20541;-41
2021/04/08 03:14:18;;;;;;;6.33;4.57;;;;;;;;;;5044529;28;21020;-43
2021/04/08 03:16:47;;;;;;;4.97;4.50;;;;;;;;;;5034107;28;20637;-43
2021/04/08 03:19:21;;;;;;;5.10;4.23;;;;;;;;;;5045484;28;20594;-43
2021/04/08 03:21:47;;;;;;;4.83;4.10;;;;;;;;;;5047462;28;20620;-44
2021/04/08 03:24:13;;;;;;;9.20;4.77;;;;;;;;;;5047899;28;21156;-43
2021/04/08 03:26:38;;;;;;;7.80;4.80;;;;;;;;;;5040457;28;20248;-44
2021/04/08 03:29:04;;;;;;;4.90;4.03;;;;;;;;;;5038594;28;20595;-43
2021/04/08 03:31:29;;;;;;;7.63;4.00;;;;;;;;;;5037138;28;20175;-43
2021/04/08 03:33:55;;;;;;;11.63;4.27;;;;;;;;;;5047715;28;20740;-43
2021/04/08 03:36:21;;;;;;;4.13;3.80;;;;;;;;;;5042582;28;20713;-43
2021/04/08 03:38:47;;;;;;;4.70;3.80;;;;;;;;;;5043375;28;20628;-43
2021/04/08 03:41:12;;;;;;;8.17;3.93;;;;;;;;;;5045987;28;21196;-43
2021/04/08 03:43:38;;;;;;;7.00;4.23;;;;;;;;;;5041892;28;20183;-43
2021/04/08 03:46:04;;;;;;;4.93;4.27;;;;;;;;;;5046755;28;20509;-43
2021/04/08 03:48:30;;;;;;;8.60;4.30;;;;;;;;;;5046976;28;20176;-42
2021/04/08 03:50:56;;;;;;;5.80;5.23;;;;;;;;;;5042638;28;20993;-41
2021/04/08 03:53:21;;;;;;;5.10;4.70;;;;;;;;;;5035361;28;20677;-42
2021/04/08 03:55:47;;;;;;;6.20;5.60;;;;;;;;;;5045563;28;20220;-43
2021/04/08 03:58:13;;;;;;;9.20;5.57;;;;;;;;;;5046307;28;20225;-43
2021/04/08 04:00:39;;;;;;;8.57;5.70;;;;;;;;;;5044741;28;20590;-42
2021/04/08 04:03:07;;;;;;;5.97;5.07;;;;;;;;;;5047868;28;21264;-43
2021/04/08 04:05:33;;;;;;;9.87;6.20;;;;;;;;;;5049421;28;20701;-42
2021/04/08 04:07:58;;;;;;;9.07;5.70;;;;;;;;;;5042023;28;21232;-42
2021/04/08 04:10:23;;;;;;;9.30;6.10;;;;;;;;;;5045993;28;20199;-42
2021/04/08 04:12:49;;;;;;;7.67;6.87;;;;;;;;;;5045700;28;20206;-43
2021/04/08 04:15:15;;;;;;;11.60;6.90;;;;;;;;;;5048180;28;20176;-44
2021/04/08 04:17:40;;;;;;;11.43;6.60;;;;;;;;;;5049090;28;20594;-43
2021/04/08 04:20:06;;;;;;;10.90;8.10;;;;;;;;;;5050829;28;20332;-42
2021/04/08 04:22:31;;;;;;;11.87;7.43;;;;;;;;;;5046856;28;20993;-42
2021/04/08 04:24:56;;;;;;;9.57;7.27;;;;;;;;;;5050361;28;20194;-42
2021/04/08 04:27:22;;;;;;;10.23;7.95;;;;;;;;;;5050824;28;20183;-41
2021/04/08 04:29:47;;;;;;;11.43;8.33;;;;;;;;;;5049440;28;20200;-42
2021/04/08 04:32:12;;;;;;;10.07;8.70;;;;;;;;;;5035591;28;20215;-42
2021/04/08 04:34:41;;;;;;;9.83;7.73;;;;;;;;;;5048064;28;20262;-42
2021/04/08 04:37:06;;;;;;;9.57;7.60;;;;;;;;;;5045548;28;20599;-43
2021/04/08 04:39:31;;;;;;;9.67;7.80;;;;;;;;;;5050102;28;20674;-42
2021/04/08 04:41:57;;;;;;;10.40;7.40;;;;;;;;;;5046875;28;20207;-41
2021/04/08 04:44:23;;;;;;;14.73;7.47;;;;;;;;;;5044619;28;20178;-43
2021/04/08 04:46:48;;;;;;;9.73;7.20;;;;;;;;;;5046096;28;20647;-42
2021/04/08 04:49:13;;;;;;;10.97;7.17;;;;;;;;;;5046076;28;20190;-43
2021/04/08 04:51:38;;;;;;;8.73;7.60;;;;;;;;;;5043120;28;20248;-42
2021/04/08 04:54:04;;;;;;;9.60;8.43;;;;;;;;;;5047879;28;20178;-43
2021/04/08 04:56:29;;;;;;;11.00;8.53;;;;;;;;;;5044178;28;20740;-43
2021/04/08 04:58:54;;;;;;;11.00;8.47;;;;;;;;;;5046126;28;20231;-43
2021/04/08 05:01:19;;;;;;;12.60;8.97;;;;;;;;;;5045129;28;20631;-42
2021/04/08 05:03:44;;;;;;;10.83;8.07;;;;;;;;;;5049607;28;20188;-42
2021/04/08 05:06:09;;;;;;;13.53;9.80;;;;;;;;;;5046591;28;20353;-44
2021/04/08 05:08:34;;;;;;;12.97;7.50;;;;;;;;;;5042452;28;20178;-43
2021/04/08 05:11:01;;;;;;;11.43;7.87;;;;;;;;;;5043967;28;20559;-44
2021/04/08 05:13:26;;;;;;;9.00;8.10;;;;;;;;;;5042268;28;20185;-43
2021/04/08 05:15:51;;;;;;;13.13;8.40;;;;;;;;;;5043455;28;20694;-43
2021/04/08 05:18:16;;;;;;;10.80;8.37;;;;;;;;;;5040314;28;20690;-43
2021/04/08 05:20:42;;;;;;;12.13;7.80;;;;;;;;;;5049103;28;20733;-41
2021/04/08 05:23:08;;;;;;;9.17;8.17;;;;;;;;;;5054560;28;20240;-42
2021/04/08 05:25:33;;;;;;;18.10;9.57;;;;;;;;;;5055415;28;20606;-42
2021/04/08 05:27:58;;;;;;;15.03;10.27;;;;;;;;;;5047466;28;20271;-43
2021/04/08 05:30:24;;;;;;;9.63;8.30;;;;;;;;;;5052403;28;20195;-43
2021/04/08 05:32:49;;;;;;;11.20;8.73;;;;;;;;;;5047762;28;20183;-42
2021/04/08 05:35:14;;;;;;;16.00;9.05;;;;;;;;;;5045277;28;20180;-43
2021/04/08 05:37:39;;;;;;;10.40;9.00;;;;;;;;;;5045249;28;20557;-42
2021/04/08 05:40:05;;;;;;;11.33;7.60;;;;;;;;;;5042464;28;20646;-42
2021/04/08 05:42:30;;;;;;;10.83;7.60;;;;;;;;;;5047873;28;20180;-43
2021/04/08 05:44:55;;;;;;;11.07;6.97;;;;;;;;;;5047068;28;20176;-43
2021/04/08 05:47:20;;;;;;;8.10;6.70;;;;;;;;;;5047981;28;20192;-41
2021/04/08 05:49:45;;;;;;;8.15;5.95;;;;;;;;;;5033978;28;20456;-42
2021/04/08 05:52:10;;;;;;;9.90;5.65;;;;;;;;;;5042028;28;20176;-43
2021/04/08 05:54:36;;;;;;;6.70;5.83;;;;;;;;;;5037346;28;20653;-42
2021/04/08 05:57:01;;;;;;;6.47;4.83;;;;;;;;;;5040939;28;20187;-42
2021/04/08 05:59:26;;;;;;;9.68;4.53;;;;;;;;;;5041635;28;20196;-43
2021/04/08 06:01:51;;;;;;;6.83;4.90;;;;;;;;;;5043784;28;20210;-42
2021/04/08 06:04:16;;;;;;;9.27;5.80;;;;;;;;;;5042492;28;20188;-43
2021/04/08 06:06:42;;;;;;;9.43;5.93;;;;;;;;;;5046004;28;20711;-43
2021/04/08 06:09:07;;;;;;;8.43;4.20;;;;;;;;;;5043626;28;20255;-44
2021/04/08 06:11:32;;;;;;;8.27;3.63;;;;;;;;;;5040600;28;20172;-44
2021/04/08 06:13:57;;;;;;;5.83;3.60;;;;;;;;;;5044530;28;20248;-44
2021/04/08 06:16:22;;;;;;;6.37;4.70;;;;;;;;;;5046420;28;20195;-43
2021/04/08 06:18:47;;;;;;;5.95;5.07;;;;;;;;;;5055540;28;20176;-43
2021/04/08 06:21:13;;;;;;;5.35;3.63;;;;;;;;;;5045210;28;20709;-41
2021/04/08 06:23:38;;;;;;;4.23;3.80;;;;;;;;;;5045323;28;20183;-42
2021/04/08 06:26:03;;;;;;;6.82;4.38;;;;;;;;;;5045319;28;20643;-42
2021/04/08 06:28:28;;;;;;;7.10;4.40;;;;;;;;;;5039207;28;20224;-43
2021/04/08 06:30:54;;;;;;;9.93;3.93;;;;;;;;;;5044256;28;20209;-43
2021/04/08 06:33:19;;;;;;;4.60;4.20;;;;;;;;;;5044433;28;20666;-41
2021/04/08 06:35:44;;;;;;;6.17;4.20;;;;;;;;;;5044898;28;20304;-42
2021/04/08 06:38:09;;;;;;;5.22;3.85;;;;;;;;;;5060446;28;20169;-42
2021/04/08 06:40:35;;;;;;;7.70;5.50;;;;;;;;;;5033994;28;20196;-46
2021/04/08 06:43:01;;;;;;;8.33;6.17;;;;;;;;;;5044500;28;20180;-42
2021/04/08 06:45:27;;;;;;;13.50;9.10;;;;;;;;;;5039880;28;20581;-43
2021/04/08 06:47:54;;;;;;;12.70;8.60;;;;;;;;;;5034107;28;20618;-42
2021/04/08 06:50:21;;;;;;;11.13;6.93;;;;;;;;;;5042757;28;20757;-42
2021/04/08 06:52:47;;;;;;;9.13;6.03;;;;;;;;;;5038506;28;20587;-42
2021/04/08 06:55:12;;;;;;;7.47;6.33;;;;;;;;;;5039142;28;20741;-42
2021/04/08 06:57:38;;;;;;;13.00;9.60;;;;;;;;;;5040651;28;20192;-43
2021/04/08 07:00:04;;;;;;;11.47;8.30;;;;;;;;;;5043402;28;20693;-42
2021/04/08 07:02:29;;;;;;;7.83;5.87;;;;;;;;;;5043543;28;20602;-43
2021/04/08 07:04:55;;;;;;;9.33;6.07;;;;;;;;;;5043616;28;20267;-43
2021/04/08 07:07:20;;;;;;;8.70;6.13;;;;;;;;;;5043791;28;20287;-43
2021/04/08 07:09:48;;;;;;;6.03;5.20;;;;;;;;;;5038911;28;20210;-42
2021/04/08 07:12:13;;;;;;;9.33;5.30;;;;;;;;;;5043720;28;20277;-43
2021/04/08 07:14:39;;;;;;;13.63;9.10;;;;;;;;;;5038519;28;20683;-42
2021/04/08 07:17:10;;;;;;;13.73;8.80;;;;;;;;;;5041776;28;20200;-43
2021/04/08 07:19:36;;;;;;;5.60;5.00;;;;;;;;;;5042945;28;20272;-43
2021/04/08 07:22:01;;;;;;;8.00;5.90;;;;;;;;;;5044381;28;21033;-42
2021/04/08 07:24:26;;;;;;;9.67;7.20;;;;;;;;;;5043889;28;20181;-47
2021/04/08 07:27:02;;;;;;;8.10;5.30;;;;;;;;;;5054348;28;20617;-43
2021/04/08 07:29:39;;;;;;;12.37;5.43;;;;;;;;;;5046057;28;20692;-43
2021/04/08 07:32:14;;;;;;;9.30;6.07;;;;;;;;;;5047240;28;21291;-42
2021/04/08 07:34:44;;;;;;;7.40;5.90;;;;;;;;;;5044972;28;20605;-43
2021/04/08 07:37:09;;;;;;;9.57;6.07;;;;;;;;;;5039611;28;20737;-42
2021/04/08 07:39:38;;;;;;;11.53;6.87;;;;;;;;;;5046063;28;20705;-42
2021/04/08 07:42:05;;;;;;;7.97;7.23;;;;;;;;;;5046993;28;20689;-43
2021/04/08 07:44:41;;;;;;;12.53;7.07;;;;;;;;;;5051390;28;20585;-43
2021/04/08 07:47:14;;;;;;;8.00;6.60;;;;;;;;;;5051366;28;21401;-43
2021/04/08 07:49:39;;;;;;;10.63;6.90;;;;;;;;;;5045655;28;20615;-43
2021/04/08 07:52:15;;;;;;;10.13;7.07;;;;;;;;;;5051143;28;20671;-43
2021/04/08 07:54:54;;;;;;;7.20;6.60;;;;;;;;;;5051047;28;20180;-43
2021/04/08 07:57:19;;;;;;;15.07;7.33;;;;;;;;;;5051200;28;20666;-43
2021/04/08 07:59:44;;;;;;;8.80;6.30;;;;;;;;;;5050754;28;20626;-43
2021/04/08 08:02:09;;;;;;;7.45;5.80;;;;;;;;;;5050978;28;20183;-43
2021/04/08 08:04:35;;;;;;;5.97;5.10;;;;;;;;;;5050790;28;20180;-42
2021/04/08 08:07:00;;;;;;;8.50;5.97;;;;;;;;;;5050729;28;20185;-44
2021/04/08 08:09:26;;;;;;;9.15;5.68;;;;;;;;;;5050400;28;20188;-42
2021/04/08 08:11:52;;;;;;;5.40;4.80;;;;;;;;;;5051137;28;20169;-43
2021/04/08 08:14:30;;;;;;;6.47;5.20;;;;;;;;;;5050409;28;20602;-41
2021/04/08 08:17:01;;;;;;;7.57;4.63;;;;;;;;;;5050946;28;20662;-43
2021/04/08 08:19:27;;;;;;;6.10;5.07;;;;;;;;;;5050655;28;20595;-44
2021/04/08 08:21:53;;;;;;;8.07;5.10;;;;;;;;;;5050487;28;21169;-42
2021/04/08 08:24:18;;;;;;;8.30;5.60;;;;;;;;;;5051007;28;20635;-43
2021/04/08 08:26:44;;;;;;;9.77;5.90;;;;;;;;;;5049962;28;20179;-42
2021/04/08 08:29:09;;;;;;;6.90;5.70;;;;;;;;;;5050626;28;20232;-42
2021/04/08 08:31:42;;;;;;;11.93;6.35;;;;;;;;;;5050767;28;20623;-42
2021/04/08 08:34:09;;;;;;;7.30;5.90;;;;;;;;;;5050435;28;20235;-43
2021/04/08 08:36:38;;;;;;;7.30;5.70;;;;;;;;;;5050042;28;20568;-42
2021/04/08 08:39:05;;;;;;;10.73;5.77;;;;;;;;;;5050176;28;20582;-42
2021/04/08 08:41:30;;;;;;;7.43;5.70;;;;;;;;;;5050014;28;20650;-42
2021/04/08 08:43:56;;;;;;;6.27;5.40;;;;;;;;;;5050281;28;21159;-42
2021/04/08 08:46:23;;;;;;;6.03;4.90;;;;;;;;;;5050091;28;20217;-42
2021/04/08 08:48:48;;;;;;;9.10;5.73;;;;;;;;;;5049997;28;20174;-42
2021/04/08 08:51:14;;;;;;;8.30;4.00;;;;;;;;;;5049680;28;20821;-41
2021/04/08 08:53:39;;;;;;;6.97;4.33;;;;;;;;;;5050253;28;20211;-42
2021/04/08 08:56:04;;;;;;;9.57;6.17;;;;;;;;;;5050267;28;20225;-42
2021/04/08 08:58:30;;;;;;;10.90;6.37;;;;;;;;;;5049517;28;20253;-42
2021/04/08 09:00:57;;;;;;;11.50;7.13;;;;;;;;;;5049477;28;20179;-42
2021/04/08 09:03:22;;;;;;;8.50;5.97;;;;;;;;;;5049174;28;20370;-42
2021/04/08 09:05:48;;;;;;;14.10;9.10;;;;;;;;;;5049903;28;21148;-42
2021/04/08 09:08:14;;;;;;;10.40;4.93;;;;;;;;;;5049430;28;20172;-42
2021/04/08 09:10:40;;;;;;;14.47;8.23;;;;;;;;;;5049065;28;20547;-41
2021/04/08 09:13:06;;;;;;;12.90;9.77;;;;;;;;;;5049355;28;20695;-42
2021/04/08 09:15:31;;;;;;;9.00;5.90;;;;;;;;;;5049174;28;20597;-42
2021/04/08 09:18:00;;;;;;;7.90;5.70;;;;;;;;;;5049042;28;20299;-42
2021/04/08 09:20:26;;;;;;;11.13;6.90;;;;;;;;;;5049767;28;20203;-43
2021/04/08 09:22:59;;;;;;;5.97;4.83;;;;;;;;;;5048857;28;20655;-42
2021/04/08 09:25:30;;;;;;;6.40;4.40;;;;;;;;;;5049362;28;20595;-43
2021/04/08 09:27:56;;;;;;;7.53;4.70;;;;;;;;;;5048950;28;21796;-42
2021/04/08 09:31:26;;;;;;;7.90;3.83;;;;;;;;;;5048712;28;20676;-42
2021/04/08 09:33:38;;;;;;;6.27;3.67;;;;;;;;;;5026074;28;20586;-42
2021/04/08 09:36:24;;;;;;;6.77;4.07;;;;;;;;;;5048820;28;20557;-43
2021/04/08 09:38:56;;;;;;;8.70;6.20;;;;;;;;;;5048378;28;20617;-42
2021/04/08 09:41:41;;;;;;;11.60;5.60;;;;;;;;;;5038667;28;20743;-43
2021/04/08 09:44:07;;;;;;;8.63;4.47;;;;;;;;;;5048274;28;21247;-42
2021/04/08 09:46:41;;;;;;;12.90;8.23;;;;;;;;;;5048440;28;20656;-41
2021/04/08 09:49:07;;;;;;;14.63;8.93;;;;;;;;;;5048797;28;20270;-42
2021/04/08 09:51:37;;;;;;;6.33;4.03;;;;;;;;;;5048993;28;21063;-42
2021/04/08 09:54:03;;;;;;;7.37;5.70;;;;;;;;;;5053707;28;20182;-43
2021/04/08 09:56:48;;;;;;;11.87;8.07;;;;;;;;;;5055166;28;21272;-42
2021/04/08 09:59:14;;;;;;;9.80;4.93;;;;;;;;;;5046956;28;20661;-42
2021/04/08 10:01:39;;;;;;;14.27;6.07;;;;;;;;;;5047728;28;21029;-42
2021/04/08 10:04:21;;;;;;;8.83;4.70;;;;;;;;;;5047169;28;20607;-42
2021/04/08 10:06:47;;;;;;;5.37;3.63;;;;;;;;;;5048600;28;20251;-42
2021/04/08 10:09:13;;;;;;;6.87;3.50;;;;;;;;;;5048866;28;21156;-42
2021/04/08 10:11:39;;;;;;;7.30;3.17;;;;;;;;;;5048579;28;20261;-42
2021/04/08 10:14:24;;;;;;;5.83;3.20;;;;;;;;;;5048452;28;20691;-43
2021/04/08 10:17:08;;;;;;;4.03;3.40;;;;;;;;;;5046401;28;20215;-42
2021/04/08 10:19:38;;;;;;;4.23;2.50;;;;;;;;;;5044269;28;21175;-41
2021/04/08 10:22:03;;;;;;;3.27;3.00;;;;;;;;;;5048570;28;20582;-41
2021/04/08 10:24:41;;;;;;;4.87;2.40;;;;;;;;;;5042125;28;20605;-42
2021/04/08 10:27:17;;;;;;;4.53;2.67;;;;;;;;;;5033922;28;20261;-41
2021/04/08 10:29:42;;;;;;;2.70;2.50;;;;;;;;;;5042329;28;20646;-42
2021/04/08 10:32:08;;;;;;;5.10;3.63;;;;;;;;;;5045501;28;20598;-41
2021/04/08 10:34:34;;;;;;;2.97;2.70;;;;;;;;;;5042659;28;20199;-41
2021/04/08 10:37:00;;;;;;;6.63;2.63;;;;;;;;;;5041934;28;20738;-42
2021/04/08 10:39:29;;;;;;;3.57;3.00;;;;;;;;;;5044994;28;20596;-41
2021/04/08 10:42:07;;;;;;;3.17;2.60;;;;;;;;;;5046183;28;20621;-41
2021/04/08 10:44:35;;;;;;;5.10;2.70;;;;;;;;;;5048186;28;20687;-41
2021/04/08 10:47:01;;;;;;;5.37;2.80;;;;;;;;;;5057356;28;20627;-42
2021/04/08 10:49:31;;;;;;;5.10;3.10;;;;;;;;;;5049828;28;20602;-42
2021/04/08 10:51:56;;;;;;;3.17;1.83;;;;;;;;;;5046619;28;20607;-42
2021/04/08 10:54:25;;;;;;;4.50;2.40;;;;;;;;;;5046105;28;20592;-42
2021/04/08 10:56:50;;;;;;;1.97;1.80;;;;;;;;;;5031274;28;20700;-42
2021/04/08 10:59:20;;;;;;;1.77;1.60;;;;;;;;;;5036999;28;21278;-43
2021/04/08 11:01:45;;;;;;;2.27;1.53;;;;;;;;;;5047598;28;20175;-42
2021/04/08 11:04:10;;;;;;;3.23;2.07;;;;;;;;;;5047942;28;20596;-42
2021/04/08 11:06:36;;;;;;;4.87;2.30;;;;;;;;;;5051346;28;20168;-42
2021/04/08 11:09:01;;;;;;;4.57;2.07;;;;;;;;;;5062087;28;20189;-43
2021/04/08 11:11:26;;;;;;;2.80;2.20;;;;;;;;;;5051647;28;20561;-44
2021/04/08 11:13:51;;;;;;;4.40;2.27;;;;;;;;;;5051402;28;20203;-42
2021/04/08 11:16:16;;;;;;;2.30;2.10;;;;;;;;;;5052160;28;20173;-42
2021/04/08 11:18:42;;;;;;;7.40;2.50;;;;;;;;;;5051285;28;20663;-41
2021/04/08 11:21:07;;;;;;;2.67;2.47;;;;;;;;;;5052204;28;20180;-41
2021/04/08 11:23:32;;;;;;;7.00;2.80;;;;;;;;;;5051417;28;20186;-42
2021/04/08 11:26:04;;;;;;;4.00;3.40;;;;;;;;;;5051474;28;20289;-42
2021/04/08 11:28:29;;;;;;;4.10;3.70;;;;;;;;;;5051518;28;20181;-41
2021/04/08 11:30:54;;;;;;;7.37;5.30;;;;;;;;;;5051167;28;20640;-43
2021/04/08 11:33:20;;;;;;;4.90;4.47;;;;;;;;;;5051337;28;20187;-42
2021/04/08 11:35:46;;;;;;;5.70;4.10;;;;;;;;;;5051239;28;20538;-43
2021/04/08 11:38:13;;;;;;;3.50;3.20;;;;;;;;;;5051703;28;20600;-40
2021/04/08 11:40:40;;;;;;;4.47;3.07;;;;;;;;;;5050735;28;20199;-43
2021/04/08 11:43:25;;;;;;;2.83;2.63;;;;;;;;;;5051898;28;20633;-42
2021/04/08 11:45:51;;;;;;;3.73;2.63;;;;;;;;;;5051030;28;20609;-43
2021/04/08 11:48:18;;;;;;;7.33;3.07;;;;;;;;;;5051377;28;20981;-43
2021/04/08 11:50:45;;;;;;;2.83;2.63;;;;;;;;;;5050281;28;20647;-43
2021/04/08 11:53:11;;;;;;;2.70;2.50;;;;;;;;;;5051076;28;20655;-43
2021/04/08 11:55:38;;;;;;;3.53;2.63;;;;;;;;;;5050312;28;20681;-43
2021/04/08 11:58:04;;;;;;;4.40;2.60;;;;;;;;;;5050843;28;20652;-43
2021/04/08 12:00:29;;;;;;;4.63;3.03;;;;;;;;;;5050695;28;20629;-43
2021/04/08 12:02:55;;;;;;;4.70;2.93;;;;;;;;;;5050573;28;20223;-43
2021/04/08 12:05:20;;;;;;;5.27;3.43;;;;;;;;;;5051008;28;20179;-43
2021/04/08 12:07:48;;;;;;;3.60;3.30;;;;;;;;;;5050662;28;20176;-43
2021/04/08 12:10:23;;;;;;;4.80;2.90;;;;;;;;;;5050467;28;20214;-43
2021/04/08 12:12:55;;;;;;;3.73;3.43;;;;;;;;;;5050664;28;20742;-43
2021/04/08 12:15:33;;;;;;;3.83;2.73;;;;;;;;;;5050956;28;20948;-43
2021/04/08 12:17:59;;;;;;;3.23;3.00;;;;;;;;;;5049917;28;21019;-43
2021/04/08 12:20:24;;;;;;;3.40;3.10;;;;;;;;;;5050480;28;20611;-43
2021/04/08 12:22:50;;;;;;;3.90;3.10;;;;;;;;;;5050485;28;20177;-43
2021/04/08 12:25:17;;;;;;;5.97;3.63;;;;;;;;;;5050348;28;20268;-43
2021/04/08 12:27:43;;;;;;;4.67;4.10;;;;;;;;;;5050518;28;20235;-42
2021/04/08 12:30:08;;;;;;;5.43;3.60;;;;;;;;;;5050313;28;21176;-42
2021/04/08 12:32:34;;;;;;;4.90;4.50;;;;;;;;;;5050340;28;20199;-42
2021/04/08 12:34:59;;;;;;;4.53;4.13;;;;;;;;;;5049862;28;20624;-42
2021/04/08 12:37:25;;;;;;;3.73;3.43;;;;;;;;;;5050151;28;20174;-42
2021/04/08 12:39:51;;;;;;;4.63;4.07;;;;;;;;;;5049874;28;20432;-42
2021/04/08 12:42:17;;;;;;;4.97;4.57;;;;;;;;;;5050587;28;20614;-44
2021/04/08 12:44:42;;;;;;;4.47;4.07;;;;;;;;;;5049915;28;20630;-43
2021/04/08 12:47:08;;;;;;;3.87;3.57;;;;;;;;;;5044104;28;20258;-42
2021/04/08 12:49:33;;;;;;;4.93;4.13;;;;;;;;;;5042525;28;20241;-41
2021/04/08 12:51:58;;;;;;;4.70;4.30;;;;;;;;;;5048859;28;20609;-42
2021/04/08 12:54:24;;;;;;;4.95;4.32;;;;;;;;;;5049437;28;20179;-42
2021/04/08 12:56:49;;;;;;;5.00;4.50;;;;;;;;;;5039216;28;20251;-42
2021/04/08 12:59:14;;;;;;;4.55;3.63;;;;;;;;;;5047082;28;20188;-42
2021/04/08 13:01:39;;;;;;;4.00;3.70;;;;;;;;;;5042808;28;20188;-42
2021/04/08 13:04:04;;;;;;;3.10;2.80;;;;;;;;;;5031841;28;20219;-42
2021/04/08 13:06:29;;;;;;;4.73;3.37;;;;;;;;;;5031082;28;20575;-42
2021/04/08 13:08:55;;;;;;;4.63;3.13;;;;;;;;;;5037934;28;20195;-42
2021/04/08 13:11:20;;;;;;;3.87;3.53;;;;;;;;;;5043386;28;20188;-43
2021/04/08 13:13:45;;;;;;;4.73;4.33;;;;;;;;;;5041117;28;20252;-42
2021/04/08 13:16:10;;;;;;;6.60;4.37;;;;;;;;;;5045775;28;20194;-42
2021/04/08 13:18:35;;;;;;;6.05;4.10;;;;;;;;;;5049651;28;20180;-42
2021/04/08 13:21:00;;;;;;;4.80;4.40;;;;;;;;;;5047055;28;20196;-41
2021/04/08 13:23:26;;;;;;;6.82;5.25;;;;;;;;;;5039111;28;20186;-43
2021/04/08 13:25:51;;;;;;;7.40;6.70;;;;;;;;;;5045024;28;20260;-43
2021/04/08 13:28:16;;;;;;;8.30;7.50;;;;;;;;;;5038471;28;20179;-42
2021/04/08 13:30:41;;;;;;;8.43;7.63;;;;;;;;;;5042196;28;20199;-43
2021/04/08 13:33:06;;;;;;;9.37;8.60;;;;;;;;;;5046017;28;21845;-42
2021/04/08 13:35:32;;;;;;;10.13;9.00;;;;;;;;;;5048557;28;20658;-43
2021/04/08 13:37:59;;;;;;;8.67;7.90;;;;;;;;;;5047998;28;20181;-44
2021/04/08 13:40:25;;;;;;;7.90;7.10;;;;;;;;;;5048887;28;20212;-42
2021/04/08 13:42:50;;;;;;;7.27;6.70;;;;;;;;;;5047298;28;21027;-41
2021/04/08 13:45:16;;;;;;;6.90;6.40;;;;;;;;;;5044452;28;20596;-42
2021/04/08 13:47:41;;;;;;;7.23;6.53;;;;;;;;;;5038766;28;20223;-41
2021/04/08 13:50:07;;;;;;;6.90;6.40;;;;;;;;;;5047504;28;20212;-41
2021/04/08 13:52:32;;;;;;;6.67;6.07;;;;;;;;;;5046440;28;20718;-42
2021/04/08 13:54:58;;;;;;;7.13;5.63;;;;;;;;;;5062374;28;20639;-41
2021/04/08 13:57:24;;;;;;;5.67;5.20;;;;;;;;;;5051175;28;20172;-41
2021/04/08 13:59:49;;;;;;;5.27;4.87;;;;;;;;;;5045814;28;20183;-41
2021/04/08 14:02:14;;;;;;;6.33;4.83;;;;;;;;;;5043415;28;20605;-41
2021/04/08 14:04:39;;;;;;;4.43;4.03;;;;;;;;;;5044479;28;20175;-43
2021/04/08 14:07:05;;;;;;;5.37;4.87;;;;;;;;;;5044754;28;20176;-42
2021/04/08 14:09:30;;;;;;;6.07;5.47;;;;;;;;;;5043022;28;20254;-41
2021/04/08 14:11:55;;;;;;;5.80;5.30;;;;;;;;;;5046231;28;20169;-44
2021/04/08 14:14:21;;;;;;;5.10;4.70;;;;;;;;;;5042852;28;20194;-42
2021/04/08 14:16:46;;;;;;;5.82;4.72;;;;;;;;;;5041369;28;20179;-42
2021/04/08 14:19:11;;;;;;;5.03;4.57;;;;;;;;;;5041524;28;20264;-42
2021/04/08 14:21:37;;;;;;;5.40;4.60;;;;;;;;;;5047498;28;20181;-42
2021/04/08 14:24:02;;;;;;;6.67;5.80;;;;;;;;;;5038518;28;20524;-42
2021/04/08 14:26:28;;;;;;;6.60;6.00;;;;;;;;;;5030283;28;20182;-42
2021/04/08 14:28:53;;;;;;;7.47;6.87;;;;;;;;;;5047587;28;20665;-42
2021/04/08 14:31:18;;;;;;;5.73;5.40;;;;;;;;;;5047251;28;20205;-42
2021/04/08 14:33:43;;;;;;;6.50;6.00;;;;;;;;;;5047952;28;20157;-42
2021/04/08 14:36:08;;;;;;;7.13;6.40;;;;;;;;;;5047754;28;20588;-42
2021/04/08 14:38:34;;;;;;;6.60;6.10;;;;;;;;;;5041871;28;20274;-42
2021/04/08 14:40:59;;;;;;;7.83;7.03;;;;;;;;;;5044779;28;20738;-42
2021/04/08 14:43:25;;;;;;;7.57;7.07;;;;;;;;;;5048162;28;20681;-41